sensor_id;sensor_type;location;lat;lon;timestamp;pressure;altitude;pressure_sealevel;temperature;humidity
3796;BME280;1913;50.660;7.834;2022-09-12T00:00:46;97399.50;;;12.57;100.00
3796;BME280;1913;50.660;7.834;2022-09-12T00:03:14;97403.56;;;12.60;100.00
3796;BME280;1913;50.660;7.834;2022-09-12T00:05:43;97399.06;;;12.67;100.00
3796;BME280;1913;50.660;7.834;2022-09-12T00:08:10;97394.19;;;12.70;100.00
3796;BME280;1913;50.660;7.834;2022-09-12T00:10:37;97393.97;;;12.65;100.00
3796;BME280;1913;50.660;7.834;2022-09-12T00:13:04;97383.91;;;12.56;100.00
3796;BME280;1913;50.660;7.834;2022-09-12T00:15:29;97395.25;;;12.56;100.00
3796;BME280;1913;50.660;7.834;2022-09-12T00:17:55;97396.91;;;12.51;100.00
3796;BME280;1913;50.660;7.834;2022-09-12T00:20:20;97387.34;;;12.56;100.00
3796;BME280;1913;50.660;7.834;2022-09-12T00:22:46;97386.09;;;12.59;100.00
3796;BME280;1913;50.660;7.834;2022-09-12T00:25:12;97389.13;;;12.62;100.00
3796;BME280;1913;50.660;7.834;2022-09-12T00:27:38;97384.06;;;12.61;100.00
3796;BME280;1913;50.660;7.834;2022-09-12T00:30:04;97385.06;;;12.66;100.00
3796;BME280;1913;50.660;7.834;2022-09-12T00:32:29;97389.13;;;12.62;100.00
3796;BME280;1913;50.660;7.834;2022-09-12T00:34:55;97384.06;;;12.61;100.00
3796;BME280;1913;50.660;7.834;2022-09-12T00:37:20;97387.91;;;12.65;100.00
3796;BME280;1913;50.660;7.834;2022-09-12T00:39:46;97384.06;;;12.61;100.00
3796;BME280;1913;50.660;7.834;2022-09-12T00:42:12;97383.22;;;12.74;100.00
3796;BME280;1913;50.660;7.834;2022-09-12T00:47:09;97378.53;;;12.76;100.00
3796;BME280;1913;50.660;7.834;2022-09-12T00:52:24;97372.03;;;12.78;100.00
3796;BME280;1913;50.660;7.834;2022-09-12T00:55:11;97369.78;;;12.82;100.00
3796;BME280;1913;50.660;7.834;2022-09-12T00:57:46;97368.31;;;12.86;100.00
3796;BME280;1913;50.660;7.834;2022-09-12T01:00:16;97368.09;;;12.87;100.00
3796;BME280;1913;50.660;7.834;2022-09-12T01:02:43;97364.84;;;12.92;100.00
3796;BME280;1913;50.660;7.834;2022-09-12T01:05:10;97363.22;;;12.91;100.00
3796;BME280;1913;50.660;7.834;2022-09-12T01:07:38;97353.41;;;12.98;100.00
3796;BME280;1913;50.660;7.834;2022-09-12T01:10:06;97355.69;;;12.94;100.00
3796;BME280;1913;50.660;7.834;2022-09-12T01:12:32;97357.09;;;12.97;100.00
3796;BME280;1913;50.660;7.834;2022-09-12T01:14:59;97353.22;;;13.00;100.00
3796;BME280;1913;50.660;7.834;2022-09-12T01:20:40;97345.34;;;12.93;100.00
3796;BME280;1913;50.660;7.834;2022-09-12T01:26:33;97349.44;;;12.89;100.00
3796;BME280;1913;50.660;7.834;2022-09-12T01:29:32;97350.63;;;12.93;100.00
3796;BME280;1913;50.660;7.834;2022-09-12T01:32:20;97348.03;;;12.86;100.00
3796;BME280;1913;50.660;7.834;2022-09-12T01:37:28;97347.44;;;12.84;100.00
3796;BME280;1913;50.660;7.834;2022-09-12T01:45:39;97344.59;;;12.86;100.00
3796;BME280;1913;50.660;7.834;2022-09-12T01:48:12;97348.63;;;12.88;100.00
3796;BME280;1913;50.660;7.834;2022-09-12T01:51:03;97341.31;;;12.90;100.00
3796;BME280;1913;50.660;7.834;2022-09-12T01:53:37;97344.97;;;12.89;100.00
3796;BME280;1913;50.660;7.834;2022-09-12T01:56:23;97342.56;;;12.88;100.00
3796;BME280;1913;50.660;7.834;2022-09-12T01:59:07;97338.09;;;12.88;100.00
3796;BME280;1913;50.660;7.834;2022-09-12T02:01:39;97323.91;;;12.83;100.00
3796;BME280;1913;50.660;7.834;2022-09-12T02:04:19;97328.16;;;12.84;100.00
3796;BME280;1913;50.660;7.834;2022-09-12T02:09:22;97316.66;;;12.78;100.00
3796;BME280;1913;50.660;7.834;2022-09-12T02:11:50;97322.72;;;12.79;100.00
3796;BME280;1913;50.660;7.834;2022-09-12T02:14:25;97319.09;;;12.73;100.00
3796;BME280;1913;50.660;7.834;2022-09-12T02:17:13;97313.78;;;12.80;100.00
3796;BME280;1913;50.660;7.834;2022-09-12T02:20:06;97322.50;;;12.80;100.00
3796;BME280;1913;50.660;7.834;2022-09-12T02:22:34;97317.00;;;12.88;100.00
3796;BME280;1913;50.660;7.834;2022-09-12T02:25:02;97313.47;;;12.94;100.00
3796;BME280;1913;50.660;7.834;2022-09-12T02:27:44;97313.47;;;12.94;100.00
3796;BME280;1913;50.660;7.834;2022-09-12T02:30:12;97317.53;;;12.97;100.00
3796;BME280;1913;50.660;7.834;2022-09-12T02:35:32;97318.38;;;12.91;100.00
3796;BME280;1913;50.660;7.834;2022-09-12T02:38:09;97304.38;;;12.90;100.00
3796;BME280;1913;50.660;7.834;2022-09-12T02:40:36;97309.94;;;12.82;100.00
3796;BME280;1913;50.660;7.834;2022-09-12T02:43:03;97319.88;;;12.80;100.00
3796;BME280;1913;50.660;7.834;2022-09-12T02:45:29;97311.19;;;12.73;100.00
3796;BME280;1913;50.660;7.834;2022-09-12T02:48:06;97317.56;;;12.59;100.00
3796;BME280;1913;50.660;7.834;2022-09-12T02:50:34;97316.75;;;12.58;100.00
3796;BME280;1913;50.660;7.834;2022-09-12T02:53:01;97315.56;;;12.54;100.00
3796;BME280;1913;50.660;7.834;2022-09-12T02:55:31;97314.38;;;12.50;100.00
3796;BME280;1913;50.660;7.834;2022-09-12T02:57:58;97312.81;;;12.42;100.00
3796;BME280;1913;50.660;7.834;2022-09-12T03:00:25;97311.38;;;12.40;100.00
3796;BME280;1913;50.660;7.834;2022-09-12T03:05:24;97301.88;;;12.39;100.00
3796;BME280;1913;50.660;7.834;2022-09-12T03:08:17;97302.72;;;12.33;100.00
3796;BME280;1913;50.660;7.834;2022-09-12T03:19:24;97305.63;;;12.18;100.00
3796;BME280;1913;50.660;7.834;2022-09-12T03:27:22;97303.56;;;12.20;100.00
3796;BME280;1913;50.660;7.834;2022-09-12T03:29:51;97303.41;;;12.15;100.00
3796;BME280;1913;50.660;7.834;2022-09-12T03:32:18;97302.97;;;12.18;100.00
3796;BME280;1913;50.660;7.834;2022-09-12T03:34:44;97305.00;;;12.16;100.00
3796;BME280;1913;50.660;7.834;2022-09-12T03:37:09;97304.97;;;12.22;100.00
3796;BME280;1913;50.660;7.834;2022-09-12T03:39:34;97308.66;;;12.21;100.00
3796;BME280;1913;50.660;7.834;2022-09-12T03:42:00;97300.09;;;12.26;100.00
3796;BME280;1913;50.660;7.834;2022-09-12T03:44:25;97307.63;;;12.16;100.00
3796;BME280;1913;50.660;7.834;2022-09-12T03:46:51;97305.38;;;12.26;100.00
3796;BME280;1913;50.660;7.834;2022-09-12T03:49:16;97302.16;;;12.24;100.00
3796;BME280;1913;50.660;7.834;2022-09-12T03:51:42;97297.69;;;12.25;100.00
3796;BME280;1913;50.660;7.834;2022-09-12T03:54:08;97305.38;;;12.26;100.00
3796;BME280;1913;50.660;7.834;2022-09-12T03:56:33;97305.56;;;12.31;100.00
3796;BME280;1913;50.660;7.834;2022-09-12T03:59:04;97303.75;;;12.32;100.00
3796;BME280;1913;50.660;7.834;2022-09-12T04:01:29;97301.50;;;12.35;100.00
3796;BME280;1913;50.660;7.834;2022-09-12T04:03:55;97308.59;;;12.35;100.00
3796;BME280;1913;50.660;7.834;2022-09-12T04:06:21;97306.78;;;12.29;100.00
3796;BME280;1913;50.660;7.834;2022-09-12T04:08:48;97305.19;;;12.21;100.00
3796;BME280;1913;50.660;7.834;2022-09-12T04:11:19;97303.41;;;12.15;100.00
3796;BME280;1913;50.660;7.834;2022-09-12T04:13:46;97301.56;;;12.15;100.00
3796;BME280;1913;50.660;7.834;2022-09-12T04:16:13;97297.97;;;12.10;100.00
3796;BME280;1913;50.660;7.834;2022-09-12T04:18:39;97293.28;;;12.12;100.00
3796;BME280;1913;50.660;7.834;2022-09-12T04:21:07;97294.72;;;12.08;100.00
3796;BME280;1913;50.660;7.834;2022-09-12T04:23:33;97288.25;;;12.04;100.00
3796;BME280;1913;50.660;7.834;2022-09-12T04:26:00;97291.53;;;11.92;100.00
3796;BME280;1913;50.660;7.834;2022-09-12T04:28:27;97291.31;;;11.94;100.00
3796;BME280;1913;50.660;7.834;2022-09-12T04:30:54;97295.78;;;11.93;100.00
3796;BME280;1913;50.660;7.834;2022-09-12T04:33:20;97290.28;;;11.95;100.00
3796;BME280;1913;50.660;7.834;2022-09-12T04:35:46;97289.91;;;11.91;100.00
3796;BME280;1913;50.660;7.834;2022-09-12T04:38:12;97287.06;;;12.00;100.00
3796;BME280;1913;50.660;7.834;2022-09-12T04:40:38;97290.28;;;11.95;100.00
3796;BME280;1913;50.660;7.834;2022-09-12T04:43:04;97288.25;;;12.04;100.00
3796;BME280;1913;50.660;7.834;2022-09-12T04:45:31;97292.31;;;12.00;100.00
3796;BME280;1913;50.660;7.834;2022-09-12T04:47:57;97293.75;;;11.95;100.00
3796;BME280;1913;50.660;7.834;2022-09-12T04:50:22;97288.06;;;11.98;100.00
3796;BME280;1913;50.660;7.834;2022-09-12T04:52:52;97295.34;;;12.03;100.00
3796;BME280;1913;50.660;7.834;2022-09-12T04:55:23;97288.63;;;12.07;100.00
3796;BME280;1913;50.660;7.834;2022-09-12T04:57:49;97290.63;;;12.12;100.00
3796;BME280;1913;50.660;7.834;2022-09-12T05:00:15;97290.25;;;12.08;100.00
3796;BME280;1913;50.660;7.834;2022-09-12T05:02:41;97291.28;;;12.07;100.00
3796;BME280;1913;50.660;7.834;2022-09-12T05:05:06;97284.34;;;12.13;100.00
3796;BME280;1913;50.660;7.834;2022-09-12T05:07:32;97286.19;;;12.12;100.00
3796;BME280;1913;50.660;7.834;2022-09-12T05:09:57;97287.44;;;12.10;100.00
3796;BME280;1913;50.660;7.834;2022-09-12T05:12:24;97281.91;;;12.18;100.00
3796;BME280;1913;50.660;7.834;2022-09-12T05:14:49;97286.97;;;12.13;100.00
3796;BME280;1913;50.660;7.834;2022-09-12T05:17:14;97287.44;;;12.10;100.00
3796;BME280;1913;50.660;7.834;2022-09-12T05:19:40;97287.16;;;12.25;100.00
3796;BME280;1913;50.660;7.834;2022-09-12T05:22:05;97282.44;;;12.33;100.00
3796;BME280;1913;50.660;7.834;2022-09-12T05:24:31;97291.09;;;12.40;100.00
3796;BME280;1913;50.660;7.834;2022-09-12T05:26:57;97285.59;;;12.49;100.00
3796;BME280;1913;50.660;7.834;2022-09-12T05:29:22;97283.47;;;12.64;100.00
3796;BME280;1913;50.660;7.834;2022-09-12T05:31:49;97287.03;;;12.76;100.00
3796;BME280;1913;50.660;7.834;2022-09-12T05:34:18;97286.91;;;12.96;100.00
3796;BME280;1913;50.660;7.834;2022-09-12T05:36:44;97280.28;;;13.12;100.00
3796;BME280;1913;50.660;7.834;2022-09-12T05:39:10;97279.97;;;13.27;100.00
3796;BME280;1913;50.660;7.834;2022-09-12T05:41:36;97290.78;;;13.44;100.00
3796;BME280;1913;50.660;7.834;2022-09-12T05:44:04;97285.22;;;13.52;100.00
3796;BME280;1913;50.660;7.834;2022-09-12T05:46:35;97287.28;;;13.68;100.00
3796;BME280;1913;50.660;7.834;2022-09-12T05:49:03;97278.19;;;13.82;100.00
3796;BME280;1913;50.660;7.834;2022-09-12T05:51:32;97283.91;;;13.98;100.00
3796;BME280;1913;50.660;7.834;2022-09-12T05:53:59;97285.66;;;14.04;100.00
3796;BME280;1913;50.660;7.834;2022-09-12T05:56:27;97284.34;;;14.13;100.00
3796;BME280;1913;50.660;7.834;2022-09-12T05:59:00;97289.75;;;14.18;100.00
3796;BME280;1913;50.660;7.834;2022-09-12T06:01:29;97290.34;;;14.20;100.00
3796;BME280;1913;50.660;7.834;2022-09-12T06:03:57;97289.00;;;14.29;100.00
3796;BME280;1913;50.660;7.834;2022-09-12T06:06:25;97289.63;;;14.43;100.00
3796;BME280;1913;50.660;7.834;2022-09-12T06:08:54;97289.94;;;14.53;100.00
3796;BME280;1913;50.660;7.834;2022-09-12T06:11:24;97282.72;;;14.60;100.00
3796;BME280;1913;50.660;7.834;2022-09-12T06:13:50;97278.50;;;14.71;100.00
3796;BME280;1913;50.660;7.834;2022-09-12T06:16:28;97275.84;;;14.71;100.00
3796;BME280;1913;50.660;7.834;2022-09-12T06:18:56;97280.94;;;14.84;100.00
3796;BME280;1913;50.660;7.834;2022-09-12T06:21:23;97281.31;;;15.00;100.00
3796;BME280;1913;50.660;7.834;2022-09-12T06:23:49;97281.22;;;15.18;100.00
3796;BME280;1913;50.660;7.834;2022-09-12T06:26:17;97280.53;;;15.35;100.00
3796;BME280;1913;50.660;7.834;2022-09-12T06:28:48;97285.94;;;15.40;100.00
3796;BME280;1913;50.660;7.834;2022-09-12T06:31:16;97286.16;;;15.62;100.00
3796;BME280;1913;50.660;7.834;2022-09-12T06:33:45;97285.59;;;15.83;100.00
3796;BME280;1913;50.660;7.834;2022-09-12T06:36:13;97283.59;;;16.02;100.00
3796;BME280;1913;50.660;7.834;2022-09-12T06:38:40;97290.13;;;16.23;100.00
3796;BME280;1913;50.660;7.834;2022-09-12T06:41:08;97280.50;;;16.34;100.00
3796;BME280;1913;50.660;7.834;2022-09-12T06:43:35;97281.44;;;16.56;100.00
3796;BME280;1913;50.660;7.834;2022-09-12T06:46:01;97286.50;;;16.58;100.00
3796;BME280;1913;50.660;7.834;2022-09-12T06:48:28;97288.53;;;16.67;100.00
3796;BME280;1913;50.660;7.834;2022-09-12T06:51:19;97284.09;;;16.85;100.00
3796;BME280;1913;50.660;7.834;2022-09-12T06:53:45;97278.81;;;17.18;100.00
3796;BME280;1913;50.660;7.834;2022-09-12T06:56:15;97285.19;;;17.39;100.00
3796;BME280;1913;50.660;7.834;2022-09-12T06:58:42;97281.25;;;17.76;100.00
3796;BME280;1913;50.660;7.834;2022-09-12T07:01:20;97282.97;;;17.87;100.00
3796;BME280;1913;50.660;7.834;2022-09-12T07:03:51;97291.53;;;18.11;100.00
3796;BME280;1913;50.660;7.834;2022-09-12T07:06:19;97283.91;;;18.19;100.00
3796;BME280;1913;50.660;7.834;2022-09-12T07:08:45;97288.53;;;18.29;100.00
3796;BME280;1913;50.660;7.834;2022-09-12T07:11:19;97276.69;;;18.15;100.00
3796;BME280;1913;50.660;7.834;2022-09-12T07:13:47;97277.53;;;18.21;100.00
3796;BME280;1913;50.660;7.834;2022-09-12T07:16:14;97284.88;;;18.13;100.00
3796;BME280;1913;50.660;7.834;2022-09-12T07:18:41;97282.34;;;18.24;100.00
3796;BME280;1913;50.660;7.834;2022-09-12T07:21:13;97281.81;;;18.49;100.00
3796;BME280;1913;50.660;7.834;2022-09-12T07:23:38;97290.16;;;18.79;100.00
3796;BME280;1913;50.660;7.834;2022-09-12T07:26:07;97290.34;;;19.05;100.00
3796;BME280;1913;50.660;7.834;2022-09-12T07:28:34;97290.56;;;19.30;100.00
3796;BME280;1913;50.660;7.834;2022-09-12T07:33:35;97284.34;;;19.57;100.00
3796;BME280;1913;50.660;7.834;2022-09-12T07:36:06;97283.72;;;19.82;100.00
3796;BME280;1913;50.660;7.834;2022-09-12T07:38:34;97285.41;;;20.08;100.00
3796;BME280;1913;50.660;7.834;2022-09-12T07:41:00;97281.75;;;20.30;100.00
3796;BME280;1913;50.660;7.834;2022-09-12T07:43:36;97284.53;;;20.50;100.00
3796;BME280;1913;50.660;7.834;2022-09-12T07:46:01;97274.41;;;20.88;100.00
3796;BME280;1913;50.660;7.834;2022-09-12T07:48:26;97275.75;;;20.65;100.00
3796;BME280;1913;50.660;7.834;2022-09-12T07:51:03;97285.06;;;20.63;100.00
3796;BME280;1913;50.660;7.834;2022-09-12T07:53:31;97287.50;;;20.95;100.00
3796;BME280;1913;50.660;7.834;2022-09-12T07:55:57;97288.00;;;20.66;100.00
3796;BME280;1913;50.660;7.834;2022-09-12T07:58:23;97286.13;;;20.51;100.00
3796;BME280;1913;50.660;7.834;2022-09-12T08:00:49;97292.03;;;20.84;100.00
3796;BME280;1913;50.660;7.834;2022-09-12T08:03:14;97293.41;;;21.22;100.00
3796;BME280;1913;50.660;7.834;2022-09-12T08:05:40;97300.63;;;21.32;100.00
3796;BME280;1913;50.660;7.834;2022-09-12T08:08:05;97301.41;;;21.02;100.00
3796;BME280;1913;50.660;7.834;2022-09-12T08:10:31;97304.91;;;20.92;100.00
3796;BME280;1913;50.660;7.834;2022-09-12T08:12:57;97311.28;;;20.91;100.00
3796;BME280;1913;50.660;7.834;2022-09-12T08:15:23;97308.88;;;20.95;100.00
3796;BME280;1913;50.660;7.834;2022-09-12T08:17:49;97310.75;;;21.20;100.00
3796;BME280;1913;50.660;7.834;2022-09-12T08:20:14;97308.41;;;21.39;100.00
3796;BME280;1913;50.660;7.834;2022-09-12T08:22:40;97316.09;;;21.56;100.00
3796;BME280;1913;50.660;7.834;2022-09-12T08:25:08;97316.63;;;21.78;100.00
3796;BME280;1913;50.660;7.834;2022-09-12T08:27:33;97323.59;;;21.69;100.00
3796;BME280;1913;50.660;7.834;2022-09-12T08:29:58;97315.56;;;21.69;100.00
3796;BME280;1913;50.660;7.834;2022-09-12T08:32:24;97321.44;;;21.81;100.00
3796;BME280;1913;50.660;7.834;2022-09-12T08:34:50;97310.75;;;21.66;100.00
3796;BME280;1913;50.660;7.834;2022-09-12T08:37:15;97313.63;;;22.00;100.00
3796;BME280;1913;50.660;7.834;2022-09-12T08:39:40;97315.97;;;22.22;100.00
3796;BME280;1913;50.660;7.834;2022-09-12T08:42:09;97318.69;;;22.17;100.00
3796;BME280;1913;50.660;7.834;2022-09-12T08:50:08;97306.47;;;23.63;99.25
3796;BME280;1913;50.660;7.834;2022-09-12T08:55:34;97307.97;;;23.45;92.84
3796;BME280;1913;50.660;7.834;2022-09-12T08:58:26;97310.63;;;23.16;92.07
3796;BME280;1913;50.660;7.834;2022-09-12T09:01:19;97301.69;;;23.55;91.67
3796;BME280;1913;50.660;7.834;2022-09-12T09:17:37;97303.00;;;23.28;90.82
3796;BME280;1913;50.660;7.834;2022-09-12T09:25:08;97289.31;;;22.51;97.65
3796;BME280;1913;50.660;7.834;2022-09-12T09:27:50;97292.09;;;23.20;91.29
3796;BME280;1913;50.660;7.834;2022-09-12T09:30:19;97286.59;;;23.64;86.61
3796;BME280;1913;50.660;7.834;2022-09-12T09:32:58;97286.00;;;24.20;84.51
3796;BME280;1913;50.660;7.834;2022-09-12T09:35:43;97288.50;;;24.54;76.70
3796;BME280;1913;50.660;7.834;2022-09-12T09:41:10;97293.50;;;24.42;74.22
3796;BME280;1913;50.660;7.834;2022-09-12T09:43:40;97290.59;;;24.38;73.49
3796;BME280;1913;50.660;7.834;2022-09-12T09:46:05;97290.84;;;24.42;72.50
3796;BME280;1913;50.660;7.834;2022-09-12T09:48:33;97293.28;;;24.95;73.81
3796;BME280;1913;50.660;7.834;2022-09-12T09:51:03;97293.06;;;25.29;65.26
3796;BME280;1913;50.660;7.834;2022-09-12T09:56:35;97287.00;;;25.38;58.71
3796;BME280;1913;50.660;7.834;2022-09-12T10:01:50;97286.19;;;24.85;58.94
3796;BME280;1913;50.660;7.834;2022-09-12T10:04:24;97274.22;;;24.59;62.00
3796;BME280;1913;50.660;7.834;2022-09-12T10:06:55;97270.97;;;24.62;61.57
3796;BME280;1913;50.660;7.834;2022-09-12T10:09:29;97269.31;;;24.23;63.89
3796;BME280;1913;50.660;7.834;2022-09-12T10:11:57;97266.50;;;24.33;67.90
3796;BME280;1913;50.660;7.834;2022-09-12T10:14:28;97271.47;;;24.21;63.48
3796;BME280;1913;50.660;7.834;2022-09-12T10:16:54;97267.41;;;24.48;59.54
3796;BME280;1913;50.660;7.834;2022-09-12T10:19:22;97260.72;;;24.45;63.06
3796;BME280;1913;50.660;7.834;2022-09-12T10:21:53;97269.44;;;24.32;58.84
3796;BME280;1913;50.660;7.834;2022-09-12T10:24:21;97266.50;;;24.71;61.43
3796;BME280;1913;50.660;7.834;2022-09-12T10:27:06;97269.03;;;25.19;58.63
3796;BME280;1913;50.660;7.834;2022-09-12T10:29:39;97273.78;;;24.71;55.29
3796;BME280;1913;50.660;7.834;2022-09-12T10:32:36;97266.63;;;24.99;55.05
3796;BME280;1913;50.660;7.834;2022-09-12T10:35:15;97269.72;;;25.25;52.93
3796;BME280;1913;50.660;7.834;2022-09-12T10:37:56;97267.81;;;25.58;51.54
3796;BME280;1913;50.660;7.834;2022-09-12T10:40:31;97274.78;;;25.73;50.26
3796;BME280;1913;50.660;7.834;2022-09-12T10:43:00;97264.66;;;25.97;51.43
3796;BME280;1913;50.660;7.834;2022-09-12T10:45:29;97258.31;;;26.43;47.70
3796;BME280;1913;50.660;7.834;2022-09-12T10:48:00;97259.56;;;26.46;45.99
3796;BME280;1913;50.660;7.834;2022-09-12T10:50:41;97253.16;;;26.69;45.34
3796;BME280;1913;50.660;7.834;2022-09-12T10:53:18;97264.13;;;26.23;45.80
3796;BME280;1913;50.660;7.834;2022-09-12T11:09:26;97248.19;;;25.25;48.67
3796;BME280;1913;50.660;7.834;2022-09-12T11:12:11;97250.66;;;25.68;45.93
3796;BME280;1913;50.660;7.834;2022-09-12T11:17:59;97252.59;;;25.95;45.32
3796;BME280;1913;50.660;7.834;2022-09-12T11:29:02;97236.44;;;26.59;42.96
3796;BME280;1913;50.660;7.834;2022-09-12T11:31:59;97234.84;;;25.94;44.77
3796;BME280;1913;50.660;7.834;2022-09-12T11:34:58;97223.81;;;26.18;44.91
3796;BME280;1913;50.660;7.834;2022-09-12T11:42:56;97236.63;;;26.85;43.14
3796;BME280;1913;50.660;7.834;2022-09-12T11:45:35;97215.72;;;26.90;40.91
3796;BME280;1913;50.660;7.834;2022-09-12T11:48:09;97215.78;;;26.99;41.04
3796;BME280;1913;50.660;7.834;2022-09-12T11:50:37;97215.25;;;26.66;38.55
3796;BME280;1913;50.660;7.834;2022-09-12T11:53:13;97206.34;;;26.88;41.64
3796;BME280;1913;50.660;7.834;2022-09-12T11:55:54;97210.00;;;27.37;41.18
3796;BME280;1913;50.660;7.834;2022-09-12T11:58:25;97215.56;;;26.87;41.79
3796;BME280;1913;50.660;7.834;2022-09-12T12:00:57;97219.22;;;26.68;41.39
3796;BME280;1913;50.660;7.834;2022-09-12T12:03:37;97215.06;;;26.62;42.16
3796;BME280;1913;50.660;7.834;2022-09-12T12:08:37;97216.00;;;25.94;44.96
3796;BME280;1913;50.660;7.834;2022-09-12T12:11:04;97198.72;;;26.09;43.26
3796;BME280;1913;50.660;7.834;2022-09-12T12:13:34;97196.69;;;26.14;43.83
3796;BME280;1913;50.660;7.834;2022-09-12T12:18:42;97186.19;;;26.63;43.40
3796;BME280;1913;50.660;7.834;2022-09-12T12:21:33;97190.00;;;26.84;44.67
3796;BME280;1913;50.660;7.834;2022-09-12T12:24:24;97177.16;;;26.45;42.69
3796;BME280;1913;50.660;7.834;2022-09-12T12:47:27;97172.72;;;26.63;43.66
3796;BME280;1913;50.660;7.834;2022-09-12T12:50:00;97163.16;;;27.33;43.34
3796;BME280;1913;50.660;7.834;2022-09-12T12:52:32;97162.38;;;27.81;42.25
3796;BME280;1913;50.660;7.834;2022-09-12T12:55:13;97162.75;;;28.23;41.75
3796;BME280;1913;50.660;7.834;2022-09-12T12:57:48;97160.31;;;27.86;40.09
3796;BME280;1913;50.660;7.834;2022-09-12T13:00:38;97152.03;;;27.34;41.95
3796;BME280;1913;50.660;7.834;2022-09-12T13:05:42;97142.72;;;27.49;39.67
3796;BME280;1913;50.660;7.834;2022-09-12T13:16:00;97145.13;;;26.21;42.91
3796;BME280;1913;50.660;7.834;2022-09-12T13:18:45;97137.66;;;26.85;41.25
3796;BME280;1913;50.660;7.834;2022-09-12T13:23:39;97131.41;;;27.38;41.08
3796;BME280;1913;50.660;7.834;2022-09-12T13:26:11;97126.34;;;27.37;40.48
3796;BME280;1913;50.660;7.834;2022-09-12T13:28:37;97117.69;;;27.57;41.12
3796;BME280;1913;50.660;7.834;2022-09-12T13:31:23;97116.69;;;27.44;39.60
3796;BME280;1913;50.660;7.834;2022-09-12T13:33:52;97123.69;;;26.38;41.46
3796;BME280;1913;50.660;7.834;2022-09-12T13:39:19;97115.22;;;25.72;44.04
3796;BME280;1913;50.660;7.834;2022-09-12T13:44:58;97102.19;;;25.52;45.59
3796;BME280;1913;50.660;7.834;2022-09-12T13:47:51;97098.94;;;25.77;45.15
3796;BME280;1913;50.660;7.834;2022-09-12T13:50:22;97097.25;;;25.82;44.22
3796;BME280;1913;50.660;7.834;2022-09-12T13:52:53;97107.59;;;26.24;43.67
3796;BME280;1913;50.660;7.834;2022-09-12T13:55:40;97103.88;;;25.62;43.36
3796;BME280;1913;50.660;7.834;2022-09-12T13:58:23;97108.13;;;25.90;43.91
3796;BME280;1913;50.660;7.834;2022-09-12T14:01:14;97100.75;;;25.68;44.12
3796;BME280;1913;50.660;7.834;2022-09-12T14:03:42;97098.97;;;25.50;45.47
3796;BME280;1913;50.660;7.834;2022-09-12T14:06:40;97093.16;;;25.98;44.36
3796;BME280;1913;50.660;7.834;2022-09-12T14:09:18;97089.44;;;26.53;43.06
3796;BME280;1913;50.660;7.834;2022-09-12T14:11:46;97090.94;;;26.45;41.36
3796;BME280;1913;50.660;7.834;2022-09-12T14:14:34;97076.09;;;26.47;41.51
3796;BME280;1913;50.660;7.834;2022-09-12T14:17:14;97075.66;;;25.59;42.55
3796;BME280;1913;50.660;7.834;2022-09-12T14:19:40;97079.38;;;24.94;45.93
3796;BME280;1913;50.660;7.834;2022-09-12T14:22:11;97079.63;;;24.93;45.84
3796;BME280;1913;50.660;7.834;2022-09-12T14:24:43;97078.34;;;24.90;47.30
3796;BME280;1913;50.660;7.834;2022-09-12T14:27:12;97067.94;;;25.16;45.29
3796;BME280;1913;50.660;7.834;2022-09-12T14:29:41;97065.72;;;25.46;45.30
3796;BME280;1913;50.660;7.834;2022-09-12T14:32:19;97073.38;;;25.52;45.29
3796;BME280;1913;50.660;7.834;2022-09-12T14:35:23;97072.50;;;25.02;45.56
3796;BME280;1913;50.660;7.834;2022-09-12T14:37:49;97075.16;;;24.88;45.45
3796;BME280;1913;50.660;7.834;2022-09-12T14:40:18;97062.44;;;25.35;44.76
3796;BME280;1913;50.660;7.834;2022-09-12T14:42:45;97068.63;;;25.22;44.50
3796;BME280;1913;50.660;7.834;2022-09-12T14:45:33;97072.41;;;25.35;45.65
3796;BME280;1913;50.660;7.834;2022-09-12T14:47:59;97071.28;;;25.63;43.73
3796;BME280;1913;50.660;7.834;2022-09-12T14:50:26;97080.84;;;25.83;41.49
3796;BME280;1913;50.660;7.834;2022-09-12T14:53:23;97080.41;;;25.76;42.73
3796;BME280;1913;50.660;7.834;2022-09-12T14:55:51;97082.09;;;24.75;44.41
3796;BME280;1913;50.660;7.834;2022-09-12T15:06:40;97067.00;;;25.07;45.03
3796;BME280;1913;50.660;7.834;2022-09-12T15:09:11;97056.72;;;24.68;45.36
3796;BME280;1913;50.660;7.834;2022-09-12T15:11:37;97056.00;;;24.29;47.26
3796;BME280;1913;50.660;7.834;2022-09-12T15:14:11;97061.25;;;24.21;50.72
3796;BME280;1913;50.660;7.834;2022-09-12T15:16:37;97065.63;;;23.98;48.42
3796;BME280;1913;50.660;7.834;2022-09-12T15:19:02;97059.25;;;24.12;48.22
3796;BME280;1913;50.660;7.834;2022-09-12T15:21:28;97059.88;;;24.04;49.04
3796;BME280;1913;50.660;7.834;2022-09-12T15:23:53;97040.78;;;23.92;48.93
3796;BME280;1913;50.660;7.834;2022-09-12T15:26:24;97047.50;;;24.08;48.77
3796;BME280;1913;50.660;7.834;2022-09-12T15:28:51;97045.25;;;24.16;49.60
3796;BME280;1913;50.660;7.834;2022-09-12T15:33:42;97033.19;;;24.13;48.01
3796;BME280;1913;50.660;7.834;2022-09-12T15:36:14;97036.16;;;24.11;47.98
3796;BME280;1913;50.660;7.834;2022-09-12T15:38:40;97030.31;;;24.09;49.55
3796;BME280;1913;50.660;7.834;2022-09-12T15:41:15;97035.56;;;24.14;50.63
3796;BME280;1913;50.660;7.834;2022-09-12T15:43:41;97028.00;;;24.03;48.72
3796;BME280;1913;50.660;7.834;2022-09-12T15:46:09;97028.63;;;23.57;50.83
3796;BME280;1913;50.660;7.834;2022-09-12T15:48:35;97034.13;;;23.65;51.69
3796;BME280;1913;50.660;7.834;2022-09-12T15:51:01;97022.75;;;23.55;53.56
3796;BME280;1913;50.660;7.834;2022-09-12T15:53:28;97025.00;;;23.48;53.43
3796;BME280;1913;50.660;7.834;2022-09-12T15:55:54;97020.81;;;23.41;51.27
3796;BME280;1913;50.660;7.834;2022-09-12T15:58:19;97026.81;;;23.33;52.58
3796;BME280;1913;50.660;7.834;2022-09-12T16:00:44;97026.34;;;23.26;52.27
3796;BME280;1913;50.660;7.834;2022-09-12T16:03:22;97027.53;;;22.96;54.01
3796;BME280;1913;50.660;7.834;2022-09-12T16:05:49;97015.16;;;23.24;53.74
3796;BME280;1913;50.660;7.834;2022-09-12T16:08:14;97013.34;;;23.38;57.29
3796;BME280;1913;50.660;7.834;2022-09-12T16:10:42;97011.72;;;23.18;57.87
3796;BME280;1913;50.660;7.834;2022-09-12T16:13:07;97019.50;;;23.20;58.94
3796;BME280;1913;50.660;7.834;2022-09-12T16:15:33;97014.03;;;23.06;60.16
3796;BME280;1913;50.660;7.834;2022-09-12T16:17:58;97012.22;;;23.02;58.54
3796;BME280;1913;50.660;7.834;2022-09-12T16:20:24;97011.56;;;23.10;58.43